AirNav   Pilot Hours Calculator
 
 868 users online  

FD00 Dade County Mosquito Control Heliport
Medley, Florida, USA

GOING TO MEDLEY?


FAA INFORMATION EFFECTIVE 02 JANUARY 2020

Location

FAA Identifier: FD00
Lat/Long: 25-49-38.4200N 080-20-32.9900W
25-49.640333N 080-20.549833W
25.8273389,-80.3424972
(estimated)
Elevation: 7 ft. / 2 m (estimated)
Variation: 03W (1985)
From city: 1 mile SW of MEDLEY, FL
Time zone: UTC -5 (UTC -4 during Daylight Saving Time)
Zip code: 33178

Heliport Operations

Heliport use: Private use. Permission required prior to landing
Activation date: 09/1983
Control tower: no
ARTCC: MIAMI CENTER
FSS: MIAMI FLIGHT SERVICE STATION
Attendance: DAWN-DUSK
Wind indicator: yes
Segmented circle: no

Heliport Communications

WX ASOS at MIA (3 nm SE): PHONE 305-870-0235
WX ASOS at OPF (6 nm NE): 125.9 (305-681-4063)
WX ASOS at HWO (12 nm NE): PHONE 954-983-5904
WX ASOS at TMB (12 nm SW): PHONE 305-235-1332
WX ASOS at FLL (18 nm NE): PHONE 954-359-7857

Nearby radio navigation aids

VOR radial/distance  VOR name  Freq  Var
DHPr016/1.7DOLPHIN VORTAC113.9004W
VKZr298/11.1VIRGINIA KEY VOR/DME117.1004W
FLLr219/17.6FORT LAUDERDALE VOR/DME114.4006W

Heliport Services

Runway Information

Helipad H1

Dimensions: 50 x 50 ft. / 15 x 15 m
Surface: concrete
Operational restrictions: INGRESS/EGRESS - NORTH & SOUTH.
Latitude: 25-49.640333N
Longitude: 080-20.549833W
Elevation: 7.0 ft.
Traffic pattern: leftleft

Heliport Ownership and Management from official FAA records

Ownership: Publicly-owned
Owner: METRO DADE COUNTY
111 NW FIRST ST
MIAMI, FL 33128
Phone 305-375-2692
PUBLIC WORKS DEPT.
Manager: MARLON NELMS
8901 NW 58TH ST
MIAMI, FL 33178
Phone 305-592-1186

Additional Remarks

A52-H1 200' TOWER 1300' WEST, 15' BLDG 200' SE.
FOR CD CTC MIAMI APCH AT 305-869-5432.

Instrument Procedures

There are no published instrument procedures at FD00.

Some nearby airports with instrument procedures:

KMIA - Miami International Airport (3 nm SE)
KOPF - Miami-Opa Locka Executive Airport (6 nm NE)
KHWO - North Perry Airport (12 nm NE)
KTMB - Miami Executive Airport (12 nm SW)
KFLL - Fort Lauderdale/Hollywood International Airport (18 nm NE)
 
Loc | Ops | Rwys | IFR | FBO | Links
Com | Nav | Svcs | Stats | Notes

Reliance Aviation
AirBoss

 
Area around FD00 (Dade County Mosquito Control Heliport)
 
Road maps at: MapQuest Bing Google
 
Aerial photo
No photo
 
Sectional chart

 
Airport distance calculator
Flying to Dade County Mosquito Control Heliport? Find the distance to fly.

From to FD00

Sunrise and sunset
Times for 21-Jan-2020
 Local
(UTC-5)
 Zulu
(UTC)
Morning civil twilight06:4611:46
Sunrise07:1012:10
Sunset17:5622:56
Evening civil twilight18:2023:20

Current date and time
Zulu (UTC)  22-Jan-2020 03:03:06
Local (UTC-5)  21-Jan-2020 22:03:06
 
METAR
KMIA 
3nm SE 
220253Z 34014G19KT 10SM CLR 11/01 A3012 RMK AO2 SLP199 T01110006 51011
KOPF 
6nm NE 
220253Z 34015G21KT 10SM CLR 11/02 A3013 RMK AO2 SLP202 T01060017 51012
KTMB 
12nm SW 
220253Z 34016KT 10SM CLR 11/02 A3012 RMK AO2 SLP198 T01060017 51012
KHWO 
12nm NE 
220253Z AUTO 35015G22KT 10SM -RA CLR 11/02 A3014 RMK AO2 SLP207 P0000 60000 T01060022 51013
KFLL 
18nm NE 
220253Z 34013G23KT 10SM CLR 09/02 A3012 RMK AO2 SLP197 T00940022 51013 $
TAF
KMIA 
3nm SE 
212040Z 2121/2224 32012G22KT P6SM FEW050 SCT250 FM220200 34013KT P6SM FEW050 SCT250 FM221600 34014G22KT P6SM FEW050 SCT250
KOPF 
6nm NE 
212040Z 2121/2218 31014G24KT P6SM FEW050 SCT250 FM220200 34013KT P6SM FEW050 SCT250 FM221600 34014G22KT P6SM FEW050 SCT250
KTMB 
12nm SW 
212040Z 2121/2218 33014G24KT P6SM FEW050 SCT250 FM220200 34013KT P6SM FEW050 SCT250 FM221600 34014G22KT P6SM FEW050 SCT250
KFLL 
18nm NE 
212040Z 2121/2224 30012G22KT P6SM FEW050 SCT250 FM220200 34013KT P6SM FEW050 SCT250 FM221600 34014G22KT P6SM FEW050 SCT250
NOTAMs
Click for the latest NOTAMs
NOTAMs are issued by the DoD/FAA and will open in a separate window not controlled by AirNav.

 

 
 

Would you like to see your business listed on this page?

 If your business provides an interesting product or service to pilots, flight crews, aircraft, or users of the Dade County Mosquito Control Heliport, you should consider listing it here.  To start the listing process, click on the button below
 
Add a business
 

Other Pages about Dade County Mosquito Control Heliport

Update a link
 
Copyright © AirNav, LLC. All rights reserved. Privacy Policy  Contact